sensor_id;sensor_type;location;lat;lon;timestamp;temperature;humidity
37906;DHT22;23739;51.448;6.674;2024-02-15T00:02:06;11.80;99.90
37906;DHT22;23739;51.448;6.674;2024-02-15T00:04:32;11.70;99.90
37906;DHT22;23739;51.448;6.674;2024-02-15T00:06:59;11.70;1.00
37906;DHT22;23739;51.448;6.674;2024-02-15T00:09:25;11.70;1.00
37906;DHT22;23739;51.448;6.674;2024-02-15T00:11:51;11.70;1.00
37906;DHT22;23739;51.448;6.674;2024-02-15T00:14:16;11.70;1.00
37906;DHT22;23739;51.448;6.674;2024-02-15T00:16:42;11.70;1.00
37906;DHT22;23739;51.448;6.674;2024-02-15T00:19:08;11.70;1.00
37906;DHT22;23739;51.448;6.674;2024-02-15T00:21:34;11.70;1.00
37906;DHT22;23739;51.448;6.674;2024-02-15T00:24:00;11.70;49.00
37906;DHT22;23739;51.448;6.674;2024-02-15T00:26:26;11.70;11.50
37906;DHT22;23739;51.448;6.674;2024-02-15T00:28:52;11.70;1.00
37906;DHT22;23739;51.448;6.674;2024-02-15T00:31:17;11.70;1.00
37906;DHT22;23739;51.448;6.674;2024-02-15T00:33:44;11.70;1.00
37906;DHT22;23739;51.448;6.674;2024-02-15T00:36:10;11.70;1.00
37906;DHT22;23739;51.448;6.674;2024-02-15T00:38:35;11.70;1.00
37906;DHT22;23739;51.448;6.674;2024-02-15T00:41:01;11.70;1.00
37906;DHT22;23739;51.448;6.674;2024-02-15T00:43:28;11.80;1.00
37906;DHT22;23739;51.448;6.674;2024-02-15T00:45:53;11.80;1.00
37906;DHT22;23739;51.448;6.674;2024-02-15T00:48:19;11.80;99.90
37906;DHT22;23739;51.448;6.674;2024-02-15T00:50:45;11.80;1.00
37906;DHT22;23739;51.448;6.674;2024-02-15T00:53:11;11.80;99.90
37906;DHT22;23739;51.448;6.674;2024-02-15T00:55:36;11.80;99.90
37906;DHT22;23739;51.448;6.674;2024-02-15T00:58:02;11.80;1.00
37906;DHT22;23739;51.448;6.674;2024-02-15T01:00:28;11.80;1.00
37906;DHT22;23739;51.448;6.674;2024-02-15T01:02:55;11.70;1.00
37906;DHT22;23739;51.448;6.674;2024-02-15T01:05:21;11.70;1.00
37906;DHT22;23739;51.448;6.674;2024-02-15T01:07:47;11.70;99.90
37906;DHT22;23739;51.448;6.674;2024-02-15T01:10:14;11.70;96.50
37906;DHT22;23739;51.448;6.674;2024-02-15T01:12:40;11.70;99.90
37906;DHT22;23739;51.448;6.674;2024-02-15T01:15:06;11.70;96.10
37906;DHT22;23739;51.448;6.674;2024-02-15T01:17:32;11.70;99.90
37906;DHT22;23739;51.448;6.674;2024-02-15T01:19:58;11.70;80.10
37906;DHT22;23739;51.448;6.674;2024-02-15T01:22:24;11.70;91.70
37906;DHT22;23739;51.448;6.674;2024-02-15T01:24:52;11.70;96.90
37906;DHT22;23739;51.448;6.674;2024-02-15T01:27:18;11.70;97.70
37906;DHT22;23739;51.448;6.674;2024-02-15T01:29:44;11.60;74.60
37906;DHT22;23739;51.448;6.674;2024-02-15T01:32:09;11.60;99.90
37906;DHT22;23739;51.448;6.674;2024-02-15T01:34:35;11.60;99.90
37906;DHT22;23739;51.448;6.674;2024-02-15T01:37:01;11.60;99.90
37906;DHT22;23739;51.448;6.674;2024-02-15T01:39:27;11.60;92.50
37906;DHT22;23739;51.448;6.674;2024-02-15T01:41:52;11.60;98.60
37906;DHT22;23739;51.448;6.674;2024-02-15T01:44:21;11.60;99.90
37906;DHT22;23739;51.448;6.674;2024-02-15T01:46:47;11.60;99.90
37906;DHT22;23739;51.448;6.674;2024-02-15T01:49:14;11.60;99.90
37906;DHT22;23739;51.448;6.674;2024-02-15T01:51:41;11.60;99.90
37906;DHT22;23739;51.448;6.674;2024-02-15T01:54:11;11.70;3.40
37906;DHT22;23739;51.448;6.674;2024-02-15T01:56:37;11.70;27.10
37906;DHT22;23739;51.448;6.674;2024-02-15T01:59:04;11.70;3.20
37906;DHT22;23739;51.448;6.674;2024-02-15T02:01:30;11.70;1.00
37906;DHT22;23739;51.448;6.674;2024-02-15T02:03:58;11.70;1.00
37906;DHT22;23739;51.448;6.674;2024-02-15T02:06:25;11.70;1.00
37906;DHT22;23739;51.448;6.674;2024-02-15T02:08:52;11.70;1.00
37906;DHT22;23739;51.448;6.674;2024-02-15T02:11:20;11.70;1.00
37906;DHT22;23739;51.448;6.674;2024-02-15T02:13:45;11.70;1.00
37906;DHT22;23739;51.448;6.674;2024-02-15T02:16:30;11.70;1.00
37906;DHT22;23739;51.448;6.674;2024-02-15T02:19:01;11.70;68.90
37906;DHT22;23739;51.448;6.674;2024-02-15T02:21:28;11.70;15.30
37906;DHT22;23739;51.448;6.674;2024-02-15T02:23:56;11.70;1.00
37906;DHT22;23739;51.448;6.674;2024-02-15T02:26:23;11.70;1.00
37906;DHT22;23739;51.448;6.674;2024-02-15T02:28:50;11.70;32.90
37906;DHT22;23739;51.448;6.674;2024-02-15T02:31:19;11.80;55.30
37906;DHT22;23739;51.448;6.674;2024-02-15T02:33:51;11.70;1.00
37906;DHT22;23739;51.448;6.674;2024-02-15T02:36:20;11.70;1.00
37906;DHT22;23739;51.448;6.674;2024-02-15T02:38:46;11.70;1.00
37906;DHT22;23739;51.448;6.674;2024-02-15T02:41:15;11.80;1.00
37906;DHT22;23739;51.448;6.674;2024-02-15T02:43:41;11.80;1.00
37906;DHT22;23739;51.448;6.674;2024-02-15T02:46:11;11.80;1.00
37906;DHT22;23739;51.448;6.674;2024-02-15T02:48:40;11.80;1.00
37906;DHT22;23739;51.448;6.674;2024-02-15T02:51:06;11.70;1.00
37906;DHT22;23739;51.448;6.674;2024-02-15T02:53:32;11.70;1.00
37906;DHT22;23739;51.448;6.674;2024-02-15T02:55:58;11.80;1.00
37906;DHT22;23739;51.448;6.674;2024-02-15T02:58:23;11.80;1.00
37906;DHT22;23739;51.448;6.674;2024-02-15T03:00:49;11.80;1.00
37906;DHT22;23739;51.448;6.674;2024-02-15T03:03:16;11.80;1.00
37906;DHT22;23739;51.448;6.674;2024-02-15T03:05:41;11.80;99.90
37906;DHT22;23739;51.448;6.674;2024-02-15T03:08:11;11.80;99.90
37906;DHT22;23739;51.448;6.674;2024-02-15T03:10:38;11.80;1.00
37906;DHT22;23739;51.448;6.674;2024-02-15T03:13:05;11.80;99.90
37906;DHT22;23739;51.448;6.674;2024-02-15T03:15:31;11.80;99.90
37906;DHT22;23739;51.448;6.674;2024-02-15T03:17:58;11.80;99.90
37906;DHT22;23739;51.448;6.674;2024-02-15T03:20:24;11.80;99.90
37906;DHT22;23739;51.448;6.674;2024-02-15T03:22:54;11.70;99.90
37906;DHT22;23739;51.448;6.674;2024-02-15T03:25:20;11.60;99.90
37906;DHT22;23739;51.448;6.674;2024-02-15T03:27:53;11.70;1.00
37906;DHT22;23739;51.448;6.674;2024-02-15T03:30:20;11.70;1.00
37906;DHT22;23739;51.448;6.674;2024-02-15T03:32:46;11.60;1.00
37906;DHT22;23739;51.448;6.674;2024-02-15T03:35:15;11.60;1.00
37906;DHT22;23739;51.448;6.674;2024-02-15T03:37:40;11.60;1.00
37906;DHT22;23739;51.448;6.674;2024-02-15T03:40:08;11.60;1.00
37906;DHT22;23739;51.448;6.674;2024-02-15T03:42:35;11.60;1.00
37906;DHT22;23739;51.448;6.674;2024-02-15T03:45:04;11.60;99.90
37906;DHT22;23739;51.448;6.674;2024-02-15T03:47:34;11.60;99.90
37906;DHT22;23739;51.448;6.674;2024-02-15T03:50:02;11.70;99.90
37906;DHT22;23739;51.448;6.674;2024-02-15T03:52:28;11.80;99.90
37906;DHT22;23739;51.448;6.674;2024-02-15T03:54:55;11.80;77.30
37906;DHT22;23739;51.448;6.674;2024-02-15T03:57:23;11.80;99.90
37906;DHT22;23739;51.448;6.674;2024-02-15T03:59:48;11.80;96.60
37906;DHT22;23739;51.448;6.674;2024-02-15T04:02:19;11.70;99.90
37906;DHT22;23739;51.448;6.674;2024-02-15T04:04:45;11.80;17.90
37906;DHT22;23739;51.448;6.674;2024-02-15T04:07:16;11.70;1.00
37906;DHT22;23739;51.448;6.674;2024-02-15T04:09:42;11.70;1.00
37906;DHT22;23739;51.448;6.674;2024-02-15T04:12:08;11.70;14.00
37906;DHT22;23739;51.448;6.674;2024-02-15T04:14:34;11.70;11.30
37906;DHT22;23739;51.448;6.674;2024-02-15T04:17:00;11.70;23.50
37906;DHT22;23739;51.448;6.674;2024-02-15T04:19:27;11.70;99.90
37906;DHT22;23739;51.448;6.674;2024-02-15T04:24:21;11.80;99.90
37906;DHT22;23739;51.448;6.674;2024-02-15T04:26:47;11.70;99.90
37906;DHT22;23739;51.448;6.674;2024-02-15T04:29:15;11.70;99.90
37906;DHT22;23739;51.448;6.674;2024-02-15T04:31:41;11.70;99.90
37906;DHT22;23739;51.448;6.674;2024-02-15T04:34:08;11.70;99.90
37906;DHT22;23739;51.448;6.674;2024-02-15T04:36:35;11.70;99.90
37906;DHT22;23739;51.448;6.674;2024-02-15T04:39:01;11.70;99.90
37906;DHT22;23739;51.448;6.674;2024-02-15T04:41:30;11.70;99.90
37906;DHT22;23739;51.448;6.674;2024-02-15T04:43:55;11.70;99.90
37906;DHT22;23739;51.448;6.674;2024-02-15T04:46:22;11.70;99.90
37906;DHT22;23739;51.448;6.674;2024-02-15T04:48:48;11.70;99.90
37906;DHT22;23739;51.448;6.674;2024-02-15T04:51:17;11.60;99.90
37906;DHT22;23739;51.448;6.674;2024-02-15T04:53:43;11.70;99.90
37906;DHT22;23739;51.448;6.674;2024-02-15T04:56:12;11.70;99.90
37906;DHT22;23739;51.448;6.674;2024-02-15T04:58:42;11.60;99.90
37906;DHT22;23739;51.448;6.674;2024-02-15T05:01:14;11.60;99.90
37906;DHT22;23739;51.448;6.674;2024-02-15T05:03:44;11.60;99.90
37906;DHT22;23739;51.448;6.674;2024-02-15T05:06:09;11.70;99.90
37906;DHT22;23739;51.448;6.674;2024-02-15T05:08:36;11.60;99.90
37906;DHT22;23739;51.448;6.674;2024-02-15T05:11:11;11.60;99.90
37906;DHT22;23739;51.448;6.674;2024-02-15T05:13:44;11.60;21.00
37906;DHT22;23739;51.448;6.674;2024-02-15T05:16:10;11.70;97.90
37906;DHT22;23739;51.448;6.674;2024-02-15T05:18:36;11.60;99.90
37906;DHT22;23739;51.448;6.674;2024-02-15T05:21:05;11.60;99.90
37906;DHT22;23739;51.448;6.674;2024-02-15T05:23:35;11.60;99.90
37906;DHT22;23739;51.448;6.674;2024-02-15T05:26:03;11.60;99.90
37906;DHT22;23739;51.448;6.674;2024-02-15T05:28:29;11.60;99.90
37906;DHT22;23739;51.448;6.674;2024-02-15T05:31:15;11.50;99.90
37906;DHT22;23739;51.448;6.674;2024-02-15T05:33:54;11.60;99.90
37906;DHT22;23739;51.448;6.674;2024-02-15T05:36:21;11.50;91.50
37906;DHT22;23739;51.448;6.674;2024-02-15T05:38:50;11.50;99.90
37906;DHT22;23739;51.448;6.674;2024-02-15T05:41:17;11.50;1.00
37906;DHT22;23739;51.448;6.674;2024-02-15T05:43:43;11.40;1.00
37906;DHT22;23739;51.448;6.674;2024-02-15T05:46:09;11.40;99.90
37906;DHT22;23739;51.448;6.674;2024-02-15T05:48:36;11.40;99.90
37906;DHT22;23739;51.448;6.674;2024-02-15T05:51:04;11.50;99.90
37906;DHT22;23739;51.448;6.674;2024-02-15T05:53:30;11.50;99.90
37906;DHT22;23739;51.448;6.674;2024-02-15T05:55:56;11.40;99.90
37906;DHT22;23739;51.448;6.674;2024-02-15T05:58:24;11.50;25.30
37906;DHT22;23739;51.448;6.674;2024-02-15T06:00:50;11.60;62.10
37906;DHT22;23739;51.448;6.674;2024-02-15T06:03:16;11.60;20.30
37906;DHT22;23739;51.448;6.674;2024-02-15T06:05:42;11.50;98.50
37906;DHT22;23739;51.448;6.674;2024-02-15T06:08:09;11.50;99.90
37906;DHT22;23739;51.448;6.674;2024-02-15T06:10:35;11.40;99.90
37906;DHT22;23739;51.448;6.674;2024-02-15T06:13:00;11.40;99.90
37906;DHT22;23739;51.448;6.674;2024-02-15T06:15:26;11.40;99.90
37906;DHT22;23739;51.448;6.674;2024-02-15T06:17:52;11.40;99.90
37906;DHT22;23739;51.448;6.674;2024-02-15T06:20:18;11.40;99.90
37906;DHT22;23739;51.448;6.674;2024-02-15T06:22:45;11.50;99.90
37906;DHT22;23739;51.448;6.674;2024-02-15T06:25:12;11.50;99.90
37906;DHT22;23739;51.448;6.674;2024-02-15T06:27:45;11.50;7.30
37906;DHT22;23739;51.448;6.674;2024-02-15T06:30:12;11.50;1.00
37906;DHT22;23739;51.448;6.674;2024-02-15T06:32:57;11.50;1.00
37906;DHT22;23739;51.448;6.674;2024-02-15T06:35:41;11.50;99.90
37906;DHT22;23739;51.448;6.674;2024-02-15T06:38:26;11.50;99.90
37906;DHT22;23739;51.448;6.674;2024-02-15T06:41:11;11.50;99.90
37906;DHT22;23739;51.448;6.674;2024-02-15T06:43:37;11.50;90.00
37906;DHT22;23739;51.448;6.674;2024-02-15T06:46:06;11.50;91.60
37906;DHT22;23739;51.448;6.674;2024-02-15T06:48:33;11.50;99.90
37906;DHT22;23739;51.448;6.674;2024-02-15T06:50:58;11.50;99.90
37906;DHT22;23739;51.448;6.674;2024-02-15T06:53:24;11.50;99.90
37906;DHT22;23739;51.448;6.674;2024-02-15T06:55:50;11.50;99.90
37906;DHT22;23739;51.448;6.674;2024-02-15T06:58:16;11.40;99.90
37906;DHT22;23739;51.448;6.674;2024-02-15T07:00:43;11.50;99.90
37906;DHT22;23739;51.448;6.674;2024-02-15T07:03:09;11.50;99.90
37906;DHT22;23739;51.448;6.674;2024-02-15T07:05:36;11.50;98.60
37906;DHT22;23739;51.448;6.674;2024-02-15T07:08:04;11.50;99.90
37906;DHT22;23739;51.448;6.674;2024-02-15T07:10:31;11.50;49.00
37906;DHT22;23739;51.448;6.674;2024-02-15T07:12:57;11.50;39.30
37906;DHT22;23739;51.448;6.674;2024-02-15T07:15:23;11.50;33.30
37906;DHT22;23739;51.448;6.674;2024-02-15T07:17:48;11.60;1.00
37906;DHT22;23739;51.448;6.674;2024-02-15T07:20:16;11.60;1.00
37906;DHT22;23739;51.448;6.674;2024-02-15T07:22:44;11.50;99.90
37906;DHT22;23739;51.448;6.674;2024-02-15T07:25:12;11.50;99.90
37906;DHT22;23739;51.448;6.674;2024-02-15T07:27:39;11.50;47.30
37906;DHT22;23739;51.448;6.674;2024-02-15T07:30:06;11.50;91.00
37906;DHT22;23739;51.448;6.674;2024-02-15T07:32:34;11.50;45.40
37906;DHT22;23739;51.448;6.674;2024-02-15T07:35:01;11.50;99.90
37906;DHT22;23739;51.448;6.674;2024-02-15T07:37:27;11.50;99.90
37906;DHT22;23739;51.448;6.674;2024-02-15T07:39:54;11.60;99.90
37906;DHT22;23739;51.448;6.674;2024-02-15T07:42:20;11.50;99.90
37906;DHT22;23739;51.448;6.674;2024-02-15T07:44:46;11.50;99.90
37906;DHT22;23739;51.448;6.674;2024-02-15T07:47:11;11.60;99.90
37906;DHT22;23739;51.448;6.674;2024-02-15T07:49:37;11.60;99.90
37906;DHT22;23739;51.448;6.674;2024-02-15T07:52:03;11.60;73.90
37906;DHT22;23739;51.448;6.674;2024-02-15T07:54:30;11.60;1.00
37906;DHT22;23739;51.448;6.674;2024-02-15T07:56:58;11.70;1.00
37906;DHT22;23739;51.448;6.674;2024-02-15T07:59:24;11.70;47.40
37906;DHT22;23739;51.448;6.674;2024-02-15T08:01:50;11.70;88.40
37906;DHT22;23739;51.448;6.674;2024-02-15T08:04:16;11.70;99.90
37906;DHT22;23739;51.448;6.674;2024-02-15T08:06:43;11.70;64.80
37906;DHT22;23739;51.448;6.674;2024-02-15T08:09:09;11.70;56.10
37906;DHT22;23739;51.448;6.674;2024-02-15T08:11:40;11.60;99.90
37906;DHT22;23739;51.448;6.674;2024-02-15T08:14:06;11.60;99.90
37906;DHT22;23739;51.448;6.674;2024-02-15T08:16:35;11.60;99.90
37906;DHT22;23739;51.448;6.674;2024-02-15T08:19:00;11.60;99.90
37906;DHT22;23739;51.448;6.674;2024-02-15T08:21:27;11.60;99.90
37906;DHT22;23739;51.448;6.674;2024-02-15T08:23:59;11.60;99.90
37906;DHT22;23739;51.448;6.674;2024-02-15T08:26:25;11.50;99.90
37906;DHT22;23739;51.448;6.674;2024-02-15T08:28:51;11.50;99.90
37906;DHT22;23739;51.448;6.674;2024-02-15T08:31:18;11.60;99.90
37906;DHT22;23739;51.448;6.674;2024-02-15T08:33:44;11.50;99.90
37906;DHT22;23739;51.448;6.674;2024-02-15T08:36:11;11.50;1.00
37906;DHT22;23739;51.448;6.674;2024-02-15T08:38:39;11.50;1.00
37906;DHT22;23739;51.448;6.674;2024-02-15T08:41:04;11.50;1.00
37906;DHT22;23739;51.448;6.674;2024-02-15T08:43:32;11.60;1.00
37906;DHT22;23739;51.448;6.674;2024-02-15T08:45:58;11.60;99.90
37906;DHT22;23739;51.448;6.674;2024-02-15T08:48:24;11.70;1.00
37906;DHT22;23739;51.448;6.674;2024-02-15T08:50:51;11.70;99.90
37906;DHT22;23739;51.448;6.674;2024-02-15T08:53:16;11.70;99.90
37906;DHT22;23739;51.448;6.674;2024-02-15T08:55:45;11.70;99.90
37906;DHT22;23739;51.448;6.674;2024-02-15T08:58:10;11.80;99.90
37906;DHT22;23739;51.448;6.674;2024-02-15T09:00:36;11.80;99.90
37906;DHT22;23739;51.448;6.674;2024-02-15T09:03:06;11.80;99.90
37906;DHT22;23739;51.448;6.674;2024-02-15T09:05:32;11.80;99.90
37906;DHT22;23739;51.448;6.674;2024-02-15T09:07:58;11.90;99.90
37906;DHT22;23739;51.448;6.674;2024-02-15T09:10:23;11.80;99.90
37906;DHT22;23739;51.448;6.674;2024-02-15T09:12:49;11.90;99.90
37906;DHT22;23739;51.448;6.674;2024-02-15T09:15:15;11.90;99.90
37906;DHT22;23739;51.448;6.674;2024-02-15T09:17:42;11.90;99.90
37906;DHT22;23739;51.448;6.674;2024-02-15T09:20:10;12.00;99.90
37906;DHT22;23739;51.448;6.674;2024-02-15T09:22:48;12.10;99.90
37906;DHT22;23739;51.448;6.674;2024-02-15T09:25:13;12.10;99.90
37906;DHT22;23739;51.448;6.674;2024-02-15T09:27:40;12.10;99.90
37906;DHT22;23739;51.448;6.674;2024-02-15T09:30:07;12.10;84.90
37906;DHT22;23739;51.448;6.674;2024-02-15T09:32:38;12.20;1.00
37906;DHT22;23739;51.448;6.674;2024-02-15T09:35:05;12.20;1.00
37906;DHT22;23739;51.448;6.674;2024-02-15T09:37:36;12.20;1.00
37906;DHT22;23739;51.448;6.674;2024-02-15T09:40:08;12.20;1.00
37906;DHT22;23739;51.448;6.674;2024-02-15T09:42:35;12.30;1.00
37906;DHT22;23739;51.448;6.674;2024-02-15T09:45:01;12.40;1.00
37906;DHT22;23739;51.448;6.674;2024-02-15T09:47:37;12.40;99.90
37906;DHT22;23739;51.448;6.674;2024-02-15T09:50:09;12.50;99.90
37906;DHT22;23739;51.448;6.674;2024-02-15T09:52:38;12.50;74.70
37906;DHT22;23739;51.448;6.674;2024-02-15T09:55:05;12.60;1.00
37906;DHT22;23739;51.448;6.674;2024-02-15T09:57:31;12.70;99.90
37906;DHT22;23739;51.448;6.674;2024-02-15T10:00:00;12.70;99.90
37906;DHT22;23739;51.448;6.674;2024-02-15T10:02:29;12.80;1.00
37906;DHT22;23739;51.448;6.674;2024-02-15T10:04:56;12.80;99.90
37906;DHT22;23739;51.448;6.674;2024-02-15T10:07:25;12.80;1.00
37906;DHT22;23739;51.448;6.674;2024-02-15T10:09:53;12.90;1.00
37906;DHT22;23739;51.448;6.674;2024-02-15T10:12:19;12.90;99.90
37906;DHT22;23739;51.448;6.674;2024-02-15T10:14:50;12.90;99.90
37906;DHT22;23739;51.448;6.674;2024-02-15T10:17:18;13.00;23.70
37906;DHT22;23739;51.448;6.674;2024-02-15T10:19:44;13.00;99.90
37906;DHT22;23739;51.448;6.674;2024-02-15T10:22:10;13.00;99.90
37906;DHT22;23739;51.448;6.674;2024-02-15T10:24:39;13.00;1.00
37906;DHT22;23739;51.448;6.674;2024-02-15T10:27:05;13.10;1.00
37906;DHT22;23739;51.448;6.674;2024-02-15T10:29:36;13.10;1.00
37906;DHT22;23739;51.448;6.674;2024-02-15T10:32:03;13.20;99.90
37906;DHT22;23739;51.448;6.674;2024-02-15T10:34:30;13.20;81.80
37906;DHT22;23739;51.448;6.674;2024-02-15T10:37:12;13.30;99.90
37906;DHT22;23739;51.448;6.674;2024-02-15T10:39:38;13.30;99.90
37906;DHT22;23739;51.448;6.674;2024-02-15T10:42:06;13.40;1.00
37906;DHT22;23739;51.448;6.674;2024-02-15T10:44:32;13.50;99.90
37906;DHT22;23739;51.448;6.674;2024-02-15T10:47:01;13.50;14.90
37906;DHT22;23739;51.448;6.674;2024-02-15T10:49:32;13.50;45.30
37906;DHT22;23739;51.448;6.674;2024-02-15T10:52:00;13.60;1.00
37906;DHT22;23739;51.448;6.674;2024-02-15T10:54:47;13.60;1.00
37906;DHT22;23739;51.448;6.674;2024-02-15T10:57:13;13.60;99.90
37906;DHT22;23739;51.448;6.674;2024-02-15T11:05:08;13.70;99.90
37906;DHT22;23739;51.448;6.674;2024-02-15T11:07:38;13.80;99.90
37906;DHT22;23739;51.448;6.674;2024-02-15T11:10:05;13.90;99.90
37906;DHT22;23739;51.448;6.674;2024-02-15T11:12:36;14.00;99.90
37906;DHT22;23739;51.448;6.674;2024-02-15T11:15:03;14.00;1.00
37906;DHT22;23739;51.448;6.674;2024-02-15T11:17:48;14.00;1.00
37906;DHT22;23739;51.448;6.674;2024-02-15T11:23:00;14.00;1.00
37906;DHT22;23739;51.448;6.674;2024-02-15T11:25:38;14.00;1.00
37906;DHT22;23739;51.448;6.674;2024-02-15T11:30:55;14.10;1.00
37906;DHT22;23739;51.448;6.674;2024-02-15T11:33:30;14.20;1.00
37906;DHT22;23739;51.448;6.674;2024-02-15T11:36:04;14.30;99.90
37906;DHT22;23739;51.448;6.674;2024-02-15T11:38:31;14.40;99.90
37906;DHT22;23739;51.448;6.674;2024-02-15T11:46:19;14.70;1.00
37906;DHT22;23739;51.448;6.674;2024-02-15T11:48:48;14.90;1.00
37906;DHT22;23739;51.448;6.674;2024-02-15T11:51:35;15.00;1.00
37906;DHT22;23739;51.448;6.674;2024-02-15T11:59:13;15.20;99.90
37906;DHT22;23739;51.448;6.674;2024-02-15T12:01:56;15.40;99.90
37906;DHT22;23739;51.448;6.674;2024-02-15T12:04:40;15.50;99.90
37906;DHT22;23739;51.448;6.674;2024-02-15T12:07:24;15.70;1.00
37906;DHT22;23739;51.448;6.674;2024-02-15T12:10:15;15.80;1.00
37906;DHT22;23739;51.448;6.674;2024-02-15T12:15:59;15.70;1.00
37906;DHT22;23739;51.448;6.674;2024-02-15T12:18:44;15.80;99.90
37906;DHT22;23739;51.448;6.674;2024-02-15T12:21:13;16.00;99.90
37906;DHT22;23739;51.448;6.674;2024-02-15T12:23:40;16.10;99.90
37906;DHT22;23739;51.448;6.674;2024-02-15T12:26:06;16.10;99.90
37906;DHT22;23739;51.448;6.674;2024-02-15T12:28:33;16.10;99.90
37906;DHT22;23739;51.448;6.674;2024-02-15T12:33:59;16.10;99.90
37906;DHT22;23739;51.448;6.674;2024-02-15T12:39:03;16.30;99.90
37906;DHT22;23739;51.448;6.674;2024-02-15T12:41:39;16.70;1.00
37906;DHT22;23739;51.448;6.674;2024-02-15T12:44:07;16.70;53.50
37906;DHT22;23739;51.448;6.674;2024-02-15T12:46:34;16.80;99.90
37906;DHT22;23739;51.448;6.674;2024-02-15T12:51:51;16.90;99.90
37906;DHT22;23739;51.448;6.674;2024-02-15T12:54:23;16.90;92.70
37906;DHT22;23739;51.448;6.674;2024-02-15T12:56:49;17.00;20.50
37906;DHT22;23739;51.448;6.674;2024-02-15T12:59:18;17.10;7.70
37906;DHT22;23739;51.448;6.674;2024-02-15T13:01:45;17.30;32.40
37906;DHT22;23739;51.448;6.674;2024-02-15T13:04:25;16.80;27.90
37906;DHT22;23739;51.448;6.674;2024-02-15T13:06:51;16.80;1.00
37906;DHT22;23739;51.448;6.674;2024-02-15T13:09:17;16.70;1.00
37906;DHT22;23739;51.448;6.674;2024-02-15T13:11:44;16.60;1.00
37906;DHT22;23739;51.448;6.674;2024-02-15T13:14:12;16.70;99.90
37906;DHT22;23739;51.448;6.674;2024-02-15T13:16:38;16.70;1.00
37906;DHT22;23739;51.448;6.674;2024-02-15T13:19:04;16.70;99.90
37906;DHT22;23739;51.448;6.674;2024-02-15T13:21:32;16.60;12.10
37906;DHT22;23739;51.448;6.674;2024-02-15T13:24:00;16.80;1.00
37906;DHT22;23739;51.448;6.674;2024-02-15T13:26:30;16.70;99.90
37906;DHT22;23739;51.448;6.674;2024-02-15T13:28:56;16.60;1.00
37906;DHT22;23739;51.448;6.674;2024-02-15T13:31:22;16.80;1.00
37906;DHT22;23739;51.448;6.674;2024-02-15T13:33:48;16.70;1.00
37906;DHT22;23739;51.448;6.674;2024-02-15T13:36:16;16.60;1.00
37906;DHT22;23739;51.448;6.674;2024-02-15T13:38:43;16.60;1.00
37906;DHT22;23739;51.448;6.674;2024-02-15T13:41:09;16.60;85.90
37906;DHT22;23739;51.448;6.674;2024-02-15T13:43:37;16.60;18.20
37906;DHT22;23739;51.448;6.674;2024-02-15T13:46:04;16.60;67.20
37906;DHT22;23739;51.448;6.674;2024-02-15T13:48:30;16.70;99.90
37906;DHT22;23739;51.448;6.674;2024-02-15T13:50:57;16.80;99.90
37906;DHT22;23739;51.448;6.674;2024-02-15T13:53:23;16.90;99.90
37906;DHT22;23739;51.448;6.674;2024-02-15T13:55:50;17.10;99.90
37906;DHT22;23739;51.448;6.674;2024-02-15T13:58:17;17.50;99.90
37906;DHT22;23739;51.448;6.674;2024-02-15T14:00:43;17.50;1.00
37906;DHT22;23739;51.448;6.674;2024-02-15T14:03:11;17.50;99.90
37906;DHT22;23739;51.448;6.674;2024-02-15T14:05:36;17.80;99.90
37906;DHT22;23739;51.448;6.674;2024-02-15T14:08:05;17.60;42.20
37906;DHT22;23739;51.448;6.674;2024-02-15T14:10:32;17.70;26.50
37906;DHT22;23739;51.448;6.674;2024-02-15T14:13:00;17.60;1.00
37906;DHT22;23739;51.448;6.674;2024-02-15T14:15:32;17.80;1.00
37906;DHT22;23739;51.448;6.674;2024-02-15T14:18:05;18.10;99.90
37906;DHT22;23739;51.448;6.674;2024-02-15T14:20:31;18.00;99.90
37906;DHT22;23739;51.448;6.674;2024-02-15T14:22:57;18.10;1.00
37906;DHT22;23739;51.448;6.674;2024-02-15T14:25:24;18.00;99.90
37906;DHT22;23739;51.448;6.674;2024-02-15T14:27:53;17.90;99.90
37906;DHT22;23739;51.448;6.674;2024-02-15T14:30:19;17.60;1.00
37906;DHT22;23739;51.448;6.674;2024-02-15T14:33:03;17.70;99.90
37906;DHT22;23739;51.448;6.674;2024-02-15T14:35:36;17.60;1.00
37906;DHT22;23739;51.448;6.674;2024-02-15T14:38:12;18.10;1.00
37906;DHT22;23739;51.448;6.674;2024-02-15T14:40:44;18.30;99.90
37906;DHT22;23739;51.448;6.674;2024-02-15T14:43:23;18.50;1.00
37906;DHT22;23739;51.448;6.674;2024-02-15T14:45:48;18.50;1.00
37906;DHT22;23739;51.448;6.674;2024-02-15T14:48:15;17.90;1.00
37906;DHT22;23739;51.448;6.674;2024-02-15T14:50:43;17.80;99.90
37906;DHT22;23739;51.448;6.674;2024-02-15T14:53:12;17.80;99.90
37906;DHT22;23739;51.448;6.674;2024-02-15T14:55:38;17.60;99.90
37906;DHT22;23739;51.448;6.674;2024-02-15T14:58:08;17.40;1.00
37906;DHT22;23739;51.448;6.674;2024-02-15T15:00:34;17.20;15.30
37906;DHT22;23739;51.448;6.674;2024-02-15T15:03:00;17.20;26.60
37906;DHT22;23739;51.448;6.674;2024-02-15T15:05:25;17.00;1.00
37906;DHT22;23739;51.448;6.674;2024-02-15T15:08:10;16.80;1.00
37906;DHT22;23739;51.448;6.674;2024-02-15T15:10:55;16.80;1.00
37906;DHT22;23739;51.448;6.674;2024-02-15T15:13:39;16.60;1.00
37906;DHT22;23739;51.448;6.674;2024-02-15T15:16:06;16.50;99.90
37906;DHT22;23739;51.448;6.674;2024-02-15T15:18:33;16.50;99.90
37906;DHT22;23739;51.448;6.674;2024-02-15T15:21:00;16.30;99.90
37906;DHT22;23739;51.448;6.674;2024-02-15T15:23:29;16.30;99.90
37906;DHT22;23739;51.448;6.674;2024-02-15T15:26:00;16.20;99.90
37906;DHT22;23739;51.448;6.674;2024-02-15T15:28:26;16.20;37.20
37906;DHT22;23739;51.448;6.674;2024-02-15T15:30:53;16.10;1.00
37906;DHT22;23739;51.448;6.674;2024-02-15T15:33:20;16.00;99.90
37906;DHT22;23739;51.448;6.674;2024-02-15T15:35:47;16.10;99.90
37906;DHT22;23739;51.448;6.674;2024-02-15T15:38:14;16.10;1.00
37906;DHT22;23739;51.448;6.674;2024-02-15T15:40:40;16.00;1.00
37906;DHT22;23739;51.448;6.674;2024-02-15T15:43:07;15.90;1.00
37906;DHT22;23739;51.448;6.674;2024-02-15T15:45:33;15.90;99.90
37906;DHT22;23739;51.448;6.674;2024-02-15T15:47:59;15.90;99.90
37906;DHT22;23739;51.448;6.674;2024-02-15T15:50:26;15.90;51.90
37906;DHT22;23739;51.448;6.674;2024-02-15T15:52:53;15.80;99.90
37906;DHT22;23739;51.448;6.674;2024-02-15T15:55:19;15.90;99.90
37906;DHT22;23739;51.448;6.674;2024-02-15T15:57:45;15.80;99.90
37906;DHT22;23739;51.448;6.674;2024-02-15T16:00:12;15.90;99.90
37906;DHT22;23739;51.448;6.674;2024-02-15T16:02:44;15.80;99.90
37906;DHT22;23739;51.448;6.674;2024-02-15T16:05:11;15.70;5.70
37906;DHT22;23739;51.448;6.674;2024-02-15T16:07:44;15.70;1.00
37906;DHT22;23739;51.448;6.674;2024-02-15T16:10:10;15.60;1.00
37906;DHT22;23739;51.448;6.674;2024-02-15T16:12:42;15.60;99.90
37906;DHT22;23739;51.448;6.674;2024-02-15T16:15:12;15.60;99.90
37906;DHT22;23739;51.448;6.674;2024-02-15T16:21:27;15.50;1.00